首页
METAR-TAF:

METAR-TAF

机场 :

諾福克國際機場

諾福克, 弗吉尼亚州, 美国

纬度: 36-54-13N, 经度: 076-11-31W, 海拔: 8米

当前天气观测

该预报发布于28分钟前的19:51 UTC
风速13节,风向,有时为19节阵风
温度 8°C
湿度 53%
气压 1031 hPa
能見度: 16.1公里
散云层高于10000英尺

METAR: KORF 141951Z 01013G19KT 10SM SCT100 08/M01 A3044 RMK AO2 SLP307 T00781011

时间: 15:19 (20:19 UTC)

预报

该预报发布于2小时和53分钟前的17:26 UTC
预报有效从14日的 18点(UTC)到 15日的 18点(UTC)
风速12节,风向
能見度: 10公里
多云层高于25000英尺
从 15日的 0500点(UTC)
风速13节,风向东北,有时为20节阵风
能見度: 10公里
阴天层高于6000英尺
从 15日的 1000点(UTC)
风速20节,风向东转东北,有时为30节阵风
能見度: 9.7公里
阴天层高于2300英尺
小雨
从 15日的 1300点(UTC)
风速20节,风向东转东北,有时为30节阵风
能見度: 8.0公里
阴天层高于1500英尺
小雨
从 15日的 1500点(UTC)
风速23节,风向东转东北,有时为35节阵风
能見度: 6.4公里
阴天层高于500英尺

TAF: KORF 141726Z 1418/1518 36012KT P6SM BKN250 FM150500 05013G20KT P6SM OVC060 FM151000 06020G30KT 6SM -RA OVC023 FM151300 06020G30KT 5SM -RA OVC015 FM151500 07023G35KT 4SM RA OVC005

超过4000个机场的气象观测和天气预报(METAR&TAF报告)。

可查询的气象台以黄色和红色小点在地图上表示。

将鼠标移到小点上方,可查看气象台名称。

然后点击查看天气观测和预报。

如需切换地图:点击带黑十字的绿色按钮放大地图;点击带横线的绿色按钮缩小地图;或者点击绿色箭头查看邻近地区的地图。


METAR-TAF: